createdAt,value
2022-10-13T00:01:31.193Z,64.87
2022-10-13T00:04:03.556Z,64.91
2022-10-13T00:06:36.382Z,64.80
2022-10-13T00:09:08.575Z,64.72
2022-10-13T00:11:40.905Z,64.74
2022-10-13T00:14:12.854Z,64.74
2022-10-13T00:16:44.949Z,64.87
2022-10-13T00:19:17.114Z,64.68
2022-10-13T00:21:49.780Z,64.54
2022-10-13T00:24:21.833Z,64.53
2022-10-13T00:26:54.318Z,64.55
2022-10-13T00:29:26.520Z,64.50
2022-10-13T00:31:59.505Z,64.65
2022-10-13T00:34:31.759Z,64.92
2022-10-13T00:37:04.282Z,65.48
2022-10-13T00:39:37.599Z,65.29
2022-10-13T00:42:14.986Z,65.13
2022-10-13T00:45:17.497Z,65.25
2022-10-13T00:47:53.035Z,65.16
2022-10-13T00:50:29.680Z,65.16
2022-10-13T00:53:03.984Z,65.48
2022-10-13T00:55:39.218Z,65.58
2022-10-13T00:58:16.292Z,65.38
2022-10-13T01:00:52.189Z,65.35
2022-10-13T01:03:26.550Z,65.40
2022-10-13T01:06:03.545Z,65.23
2022-10-13T01:08:35.953Z,65.10
2022-10-13T01:11:28.422Z,64.96
2022-10-13T01:14:10.763Z,64.72
2022-10-13T01:16:50.857Z,64.79
2022-10-13T01:19:46.779Z,64.52
2022-10-13T01:22:39.466Z,64.85
2022-10-13T01:25:27.387Z,64.86
2022-10-13T01:28:19.393Z,64.63
2022-10-13T01:30:58.229Z,64.83
2022-10-13T01:33:43.420Z,65.00
2022-10-13T01:36:23.563Z,64.91
2022-10-13T01:39:02.215Z,64.98
2022-10-13T01:41:39.816Z,64.87
2022-10-13T01:44:18.380Z,64.86
2022-10-13T01:47:00.145Z,64.89
2022-10-13T01:49:36.038Z,64.79
2022-10-13T01:52:11.986Z,64.66
2022-10-13T01:54:44.334Z,64.82
2022-10-13T01:57:33.578Z,64.78
2022-10-13T02:00:10.468Z,64.74
2022-10-13T02:02:55.418Z,64.68
2022-10-13T02:05:41.550Z,64.79
2022-10-13T02:08:15.745Z,64.93
2022-10-13T02:10:54.245Z,64.98
2022-10-13T02:13:29.135Z,64.82
2022-10-13T02:16:02.958Z,65.05
2022-10-13T02:18:37.256Z,65.22
2022-10-13T02:21:12.433Z,65.20
2022-10-13T02:23:45.328Z,65.22
2022-10-13T02:26:17.425Z,65.35
2022-10-13T02:28:49.924Z,65.15
2022-10-13T02:31:22.152Z,65.00
2022-10-13T02:33:54.589Z,65.20
2022-10-13T02:36:28.199Z,65.23
2022-10-13T02:39:01.265Z,65.26
2022-10-13T02:41:33.901Z,65.19
2022-10-13T02:44:06.795Z,65.15
2022-10-13T02:46:39.373Z,65.37
2022-10-13T02:49:12.985Z,65.19
2022-10-13T02:51:45.269Z,65.18
2022-10-13T02:54:17.378Z,64.94
2022-10-13T02:56:49.517Z,64.63
2022-10-13T02:59:21.692Z,64.25
2022-10-13T03:01:53.978Z,64.25
2022-10-13T03:04:27.390Z,64.19
2022-10-13T03:07:00.687Z,64.10
2022-10-13T03:09:33.943Z,64.19
2022-10-13T03:12:06.733Z,64.29
2022-10-13T03:14:39.579Z,64.52
2022-10-13T03:17:13.601Z,64.79
2022-10-13T03:19:46.037Z,64.73
2022-10-13T03:22:22.360Z,64.65
2022-10-13T03:24:57.388Z,64.52
2022-10-13T03:27:29.668Z,64.36
2022-10-13T03:30:02.192Z,64.32
2022-10-13T03:32:34.562Z,64.23
2022-10-13T03:35:08.185Z,64.17
2022-10-13T03:37:40.813Z,64.12
2022-10-13T03:40:14.430Z,63.91
2022-10-13T03:42:46.481Z,63.73
2022-10-13T03:45:19.119Z,63.57
2022-10-13T03:47:51.737Z,63.90
2022-10-13T03:50:24.294Z,63.70
2022-10-13T03:52:56.538Z,63.84
2022-10-13T03:55:28.771Z,63.70
2022-10-13T03:58:00.822Z,63.68
2022-10-13T04:00:33.208Z,63.37
2022-10-13T04:03:05.193Z,63.34
2022-10-13T04:05:38.095Z,63.35
2022-10-13T04:08:11.685Z,63.16
2022-10-13T04:10:44.281Z,63.21
2022-10-13T04:13:16.628Z,63.49
2022-10-13T04:15:51.102Z,63.53
2022-10-13T04:18:23.123Z,63.58
2022-10-13T04:20:55.746Z,63.58
2022-10-13T04:23:28.297Z,63.66
2022-10-13T04:26:00.407Z,63.84
2022-10-13T04:28:33.827Z,63.98
2022-10-13T04:31:06.718Z,64.54
2022-10-13T04:33:39.110Z,64.59
2022-10-13T04:36:15.277Z,64.66
2022-10-13T04:38:48.253Z,64.94
2022-10-13T04:41:21.881Z,65.13
2022-10-13T04:43:55.165Z,65.09
2022-10-13T04:46:29.087Z,65.22
2022-10-13T04:49:01.598Z,65.11
2022-10-13T04:51:37.641Z,65.25
2022-10-13T04:54:10.131Z,65.08
2022-10-13T04:56:42.838Z,65.14
2022-10-13T04:59:14.854Z,65.34
2022-10-13T05:01:47.324Z,65.44
2022-10-13T05:04:19.914Z,65.52
2022-10-13T05:07:16.418Z,65.42
2022-10-13T05:09:45.329Z,65.54
2022-10-13T05:12:18.518Z,65.60
2022-10-13T05:14:51.365Z,65.59
2022-10-13T05:17:24.708Z,65.58
2022-10-13T05:19:56.735Z,65.79
2022-10-13T05:22:30.859Z,65.87
2022-10-13T05:25:03.285Z,65.85
2022-10-13T05:27:35.775Z,65.86
2022-10-13T05:30:12.393Z,65.95
2022-10-13T05:32:44.776Z,65.91
2022-10-13T05:35:17.583Z,66.16
2022-10-13T05:37:50.234Z,66.33
2022-10-13T05:40:22.909Z,66.40
2022-10-13T05:42:59.303Z,66.32
2022-10-13T05:45:33.786Z,66.46
2022-10-13T05:48:06.236Z,66.73
2022-10-13T05:50:38.626Z,66.68
2022-10-13T05:53:10.709Z,66.66
2022-10-13T05:55:43.246Z,66.71
2022-10-13T05:58:15.750Z,66.65
2022-10-13T06:00:48.066Z,66.64
2022-10-13T06:03:23.488Z,66.73
2022-10-13T06:05:55.791Z,66.73
2022-10-13T06:08:29.368Z,67.06
2022-10-13T06:11:02.000Z,66.87
2022-10-13T06:13:34.803Z,67.03
2022-10-13T06:16:07.880Z,67.08
2022-10-13T06:18:39.831Z,67.23
2022-10-13T06:21:12.406Z,67.38
2022-10-13T06:23:44.576Z,67.71
2022-10-13T06:26:17.053Z,68.28
2022-10-13T06:28:51.725Z,68.52
2022-10-13T06:31:27.591Z,68.69
2022-10-13T06:34:00.706Z,69.34
2022-10-13T06:36:32.941Z,69.59
2022-10-13T06:39:05.131Z,69.71
2022-10-13T06:41:37.510Z,69.63
2022-10-13T06:44:10.103Z,69.84
2022-10-13T06:46:42.119Z,70.37
2022-10-13T06:49:14.393Z,70.06
2022-10-13T06:51:47.095Z,70.16
2022-10-13T06:54:19.681Z,70.59
2022-10-13T06:56:52.044Z,70.25
2022-10-13T06:59:24.028Z,70.60
2022-10-13T07:01:56.126Z,70.52
2022-10-13T07:04:29.201Z,70.68
2022-10-13T07:07:03.187Z,70.50
2022-10-13T07:09:35.289Z,70.81
2022-10-13T07:12:09.070Z,70.73
2022-10-13T07:14:43.705Z,70.33
2022-10-13T07:17:16.397Z,70.56
2022-10-13T07:19:49.323Z,70.13
2022-10-13T07:22:21.798Z,70.27
2022-10-13T07:24:53.768Z,70.19
2022-10-13T07:27:27.291Z,70.34
2022-10-13T07:29:59.461Z,70.35
2022-10-13T07:32:32.126Z,70.69
2022-10-13T07:35:05.338Z,70.57
2022-10-13T07:37:37.951Z,70.50
2022-10-13T07:40:12.199Z,70.91
2022-10-13T07:42:45.595Z,70.24
2022-10-13T07:45:17.917Z,70.17
2022-10-13T07:47:50.307Z,69.83
2022-10-13T07:50:22.528Z,69.86
2022-10-13T07:52:54.813Z,70.03
2022-10-13T07:55:27.494Z,69.13
2022-10-13T07:58:02.347Z,69.12
2022-10-13T08:00:35.384Z,68.40
2022-10-13T08:03:07.444Z,68.24
2022-10-13T08:05:41.381Z,68.29
2022-10-13T08:08:13.550Z,68.30
2022-10-13T08:10:45.915Z,67.88
2022-10-13T08:13:18.374Z,67.05
2022-10-13T08:15:51.278Z,67.12
2022-10-13T08:18:23.435Z,66.70
2022-10-13T08:21:04.259Z,66.39
2022-10-13T08:23:42.962Z,66.23
2022-10-13T08:26:24.508Z,65.84
2022-10-13T08:29:16.550Z,65.32
2022-10-13T08:34:27.231Z,64.97
2022-10-13T08:37:00.420Z,65.03
2022-10-13T08:39:33.100Z,64.80
2022-10-13T08:42:13.882Z,64.61
2022-10-13T08:45:16.134Z,64.44
2022-10-13T08:47:47.917Z,64.42
2022-10-13T08:50:23.668Z,64.35
2022-10-13T08:52:59.942Z,64.02
2022-10-13T08:55:37.555Z,63.39
2022-10-13T08:58:16.362Z,63.15
2022-10-13T09:00:48.509Z,62.89
2022-10-13T09:03:25.355Z,62.66
2022-10-13T09:06:12.654Z,62.91
2022-10-13T09:08:48.792Z,62.65
2022-10-13T09:11:21.582Z,62.26
2022-10-13T09:14:00.357Z,62.30
2022-10-13T09:16:37.682Z,62.06
2022-10-13T09:19:22.503Z,61.87
2022-10-13T09:21:56.356Z,62.06
2022-10-13T09:24:29.535Z,61.81
2022-10-13T09:27:13.603Z,61.05
2022-10-13T09:29:46.930Z,60.98
2022-10-13T09:32:23.890Z,60.78
2022-10-13T09:34:56.462Z,60.59
2022-10-13T09:37:29.683Z,60.44
2022-10-13T09:40:21.333Z,60.59
2022-10-13T09:42:55.675Z,60.18
2022-10-13T09:45:30.637Z,60.27
2022-10-13T09:48:07.446Z,59.49
2022-10-13T09:50:39.877Z,58.77
2022-10-13T09:53:31.227Z,58.54
2022-10-13T09:56:22.638Z,58.05
2022-10-13T09:59:02.081Z,58.06
2022-10-13T10:01:40.384Z,58.01
2022-10-13T10:04:18.636Z,57.88
2022-10-13T10:06:50.741Z,57.48
2022-10-13T10:09:37.727Z,56.95
2022-10-13T10:12:16.689Z,56.80
2022-10-13T10:14:50.328Z,56.92
2022-10-13T10:17:31.394Z,57.07
2022-10-13T10:20:16.926Z,56.28
2022-10-13T10:22:56.680Z,56.46
2022-10-13T10:25:35.055Z,56.34
2022-10-13T10:28:35.755Z,55.78
2022-10-13T10:31:18.862Z,56.04
2022-10-13T10:34:08.243Z,55.76
2022-10-13T10:36:49.015Z,55.67
2022-10-13T10:39:30.791Z,55.64
2022-10-13T10:42:13.102Z,54.68
2022-10-13T10:44:50.923Z,54.65
2022-10-13T10:47:28.831Z,54.34
2022-10-13T10:50:07.250Z,53.95
2022-10-13T10:52:54.946Z,54.36
2022-10-13T10:55:34.350Z,53.58
2022-10-13T10:58:21.488Z,53.37
2022-10-13T11:00:59.658Z,53.32
2022-10-13T11:03:42.408Z,53.25
2022-10-13T11:06:33.921Z,53.58
2022-10-13T11:09:07.508Z,53.46
2022-10-13T11:11:41.829Z,53.00
2022-10-13T11:14:32.019Z,53.04
2022-10-13T11:17:28.648Z,53.31
2022-10-13T11:20:01.638Z,52.88
2022-10-13T11:22:34.450Z,52.61
2022-10-13T11:25:40.693Z,53.03
2022-10-13T11:28:50.264Z,52.51
2022-10-13T11:31:35.132Z,52.05
2022-10-13T11:34:28.998Z,52.36
2022-10-13T11:37:03.113Z,52.08
2022-10-13T11:39:59.440Z,51.96
2022-10-13T11:42:55.569Z,52.08
2022-10-13T11:46:08.507Z,51.92
2022-10-13T11:48:59.187Z,52.33
2022-10-13T11:51:47.798Z,52.18
2022-10-13T11:54:29.266Z,52.18
2022-10-13T11:57:01.695Z,52.29
2022-10-13T11:59:37.582Z,51.79
2022-10-13T12:02:19.248Z,51.81
2022-10-13T12:05:08.930Z,52.14
2022-10-13T12:07:44.063Z,51.50
2022-10-13T12:10:24.614Z,51.20
2022-10-13T12:12:56.829Z,51.06
2022-10-13T12:15:35.495Z,51.22
2022-10-13T12:18:23.738Z,51.31
2022-10-13T12:20:57.366Z,51.04
2022-10-13T12:23:30.028Z,50.98
2022-10-13T12:26:02.302Z,51.28
2022-10-13T12:28:51.413Z,51.19
2022-10-13T12:31:26.065Z,51.01
2022-10-13T12:34:00.934Z,51.42
2022-10-13T12:36:35.754Z,51.88
2022-10-13T12:39:13.097Z,52.33
2022-10-13T12:41:48.466Z,52.30
2022-10-13T12:44:24.036Z,53.35
2022-10-13T12:46:59.165Z,53.27
2022-10-13T12:49:33.462Z,53.23
2022-10-13T12:52:14.504Z,53.68
2022-10-13T12:54:53.485Z,53.69
2022-10-13T12:57:36.053Z,53.71
2022-10-13T13:00:26.745Z,53.81
2022-10-13T13:03:00.767Z,53.79
2022-10-13T13:05:36.305Z,53.95
2022-10-13T13:08:23.389Z,53.62
2022-10-13T13:10:59.172Z,54.34
2022-10-13T13:13:32.261Z,54.34
2022-10-13T13:16:18.923Z,54.38
2022-10-13T13:18:52.819Z,54.92
2022-10-13T13:21:26.023Z,55.42
2022-10-13T13:23:59.355Z,55.17
2022-10-13T13:26:32.401Z,54.78
2022-10-13T13:29:04.362Z,54.72
2022-10-13T13:31:36.943Z,55.00
2022-10-13T13:34:09.175Z,55.28
2022-10-13T13:36:41.846Z,55.50
2022-10-13T13:39:18.301Z,55.53
2022-10-13T13:41:50.477Z,55.48
2022-10-13T13:44:22.512Z,55.81
2022-10-13T13:46:54.554Z,55.36
2022-10-13T13:49:26.627Z,55.34
2022-10-13T13:51:58.930Z,55.89
2022-10-13T13:54:31.162Z,55.27
2022-10-13T13:57:04.955Z,55.57
2022-10-13T13:59:37.624Z,56.00
2022-10-13T14:02:16.745Z,55.16
2022-10-13T14:04:48.911Z,54.58
2022-10-13T14:07:21.288Z,54.48
2022-10-13T14:09:57.824Z,53.95
2022-10-13T14:12:33.352Z,53.88
2022-10-13T14:15:06.942Z,53.44
2022-10-13T14:17:39.219Z,53.11
2022-10-13T14:20:12.739Z,53.03
2022-10-13T14:22:46.698Z,52.62
2022-10-13T14:25:18.877Z,52.60
2022-10-13T14:27:51.536Z,52.78
2022-10-13T14:30:23.709Z,52.90
2022-10-13T14:32:56.461Z,53.63
2022-10-13T14:35:31.416Z,53.80
2022-10-13T14:38:03.860Z,54.14
2022-10-13T14:40:36.527Z,54.76
2022-10-13T14:43:08.549Z,55.49
2022-10-13T14:45:40.643Z,55.83
2022-10-13T14:48:16.257Z,55.86
2022-10-13T14:50:48.977Z,57.15
2022-10-13T14:53:21.660Z,56.72
2022-10-13T14:55:53.660Z,56.83
2022-10-13T14:58:25.890Z,57.18
2022-10-13T15:00:57.987Z,56.63
2022-10-13T15:03:30.908Z,56.72
2022-10-13T15:06:03.061Z,57.00
2022-10-13T15:08:35.624Z,57.14
2022-10-13T15:11:08.162Z,57.03
2022-10-13T15:13:41.392Z,57.33
2022-10-13T15:16:19.076Z,57.78
2022-10-13T15:18:51.443Z,58.68
2022-10-13T15:21:24.189Z,60.53
2022-10-13T15:23:56.838Z,60.99
2022-10-13T15:26:29.051Z,59.41
2022-10-13T15:29:01.330Z,59.73
2022-10-13T15:31:33.724Z,60.35
2022-10-13T15:34:06.324Z,61.30
2022-10-13T15:36:38.267Z,61.20
2022-10-13T15:39:12.687Z,61.09
2022-10-13T15:41:44.853Z,60.97
2022-10-13T15:44:21.083Z,60.07
2022-10-13T15:47:07.452Z,60.53
2022-10-13T15:49:41.107Z,60.44
2022-10-13T15:52:13.697Z,60.46
2022-10-13T15:54:45.687Z,60.38
2022-10-13T15:57:19.972Z,60.75
2022-10-13T15:59:52.308Z,61.68
2022-10-13T16:02:24.416Z,61.88
2022-10-13T16:04:58.599Z,61.78
2022-10-13T16:07:32.936Z,62.16
2022-10-13T16:10:06.027Z,62.52
2022-10-13T16:12:38.548Z,63.04
2022-10-13T16:15:12.454Z,62.76
2022-10-13T16:17:47.344Z,63.19
2022-10-13T16:20:19.626Z,63.00
2022-10-13T16:22:51.787Z,62.97
2022-10-13T16:25:23.762Z,63.09
2022-10-13T16:27:55.800Z,63.52
2022-10-13T16:30:28.412Z,63.60
2022-10-13T16:33:00.544Z,63.56
2022-10-13T16:35:34.538Z,63.80
2022-10-13T16:38:06.569Z,63.87
2022-10-13T16:40:40.781Z,63.96
2022-10-13T16:43:12.827Z,64.22
2022-10-13T16:46:00.388Z,64.12
2022-10-13T16:48:34.468Z,64.32
2022-10-13T16:51:11.357Z,64.31
2022-10-13T16:53:44.106Z,64.56
2022-10-13T16:56:16.267Z,64.58
2022-10-13T16:58:49.108Z,64.69
2022-10-13T17:01:21.601Z,64.62
2022-10-13T17:03:54.714Z,65.03
2022-10-13T17:06:29.218Z,64.84
2022-10-13T17:09:04.000Z,65.12
2022-10-13T17:11:37.420Z,65.22
2022-10-13T17:14:11.132Z,65.37
2022-10-13T17:16:44.317Z,65.29
2022-10-13T17:19:16.349Z,65.05
2022-10-13T17:21:48.430Z,65.36
2022-10-13T17:24:21.151Z,65.42
2022-10-13T17:26:53.320Z,65.04
2022-10-13T17:29:25.644Z,65.48
2022-10-13T17:31:58.920Z,65.55
2022-10-13T17:34:30.991Z,65.56
2022-10-13T17:37:05.692Z,65.39
2022-10-13T17:39:37.695Z,65.61
2022-10-13T17:42:09.866Z,65.80
2022-10-13T17:44:42.772Z,65.75
2022-10-13T17:47:17.269Z,66.12
2022-10-13T17:49:49.383Z,65.91
2022-10-13T17:52:24.597Z,66.15
2022-10-13T17:54:56.899Z,66.28
2022-10-13T17:57:33.579Z,66.15
2022-10-13T18:00:10.866Z,66.35
2022-10-13T18:02:45.955Z,66.38
2022-10-13T18:05:18.876Z,66.49
2022-10-13T18:07:51.434Z,66.44
2022-10-13T18:10:23.561Z,66.86
2022-10-13T18:12:55.930Z,66.89
2022-10-13T18:15:28.378Z,66.82
2022-10-13T18:18:00.364Z,66.82
2022-10-13T18:20:33.699Z,66.82
2022-10-13T18:23:05.785Z,66.89
2022-10-13T18:25:38.876Z,67.09
2022-10-13T18:28:10.864Z,67.36
2022-10-13T18:30:42.891Z,67.21
2022-10-13T18:33:15.095Z,66.93
2022-10-13T18:35:47.252Z,67.16
2022-10-13T18:38:20.330Z,67.21
2022-10-13T18:40:52.343Z,66.98
2022-10-13T18:43:24.392Z,67.14
2022-10-13T18:45:59.678Z,67.51
2022-10-13T18:48:32.010Z,67.60
2022-10-13T18:51:08.546Z,67.95
2022-10-13T18:53:42.414Z,67.90
2022-10-13T18:56:18.544Z,67.91
2022-10-13T18:58:59.130Z,68.04
2022-10-13T19:01:35.622Z,68.13
2022-10-13T19:04:08.747Z,68.17
2022-10-13T19:06:41.854Z,68.19
2022-10-13T19:09:17.705Z,68.19
2022-10-13T19:11:50.116Z,68.02
2022-10-13T19:14:23.471Z,67.95
2022-10-13T19:17:01.757Z,68.00
2022-10-13T19:19:35.126Z,67.94
2022-10-13T19:22:11.305Z,67.56
2022-10-13T19:24:43.476Z,67.68
2022-10-13T19:27:16.173Z,67.81
2022-10-13T19:29:48.349Z,67.43
2022-10-13T19:32:24.339Z,67.77
2022-10-13T19:34:56.645Z,67.75
2022-10-13T19:37:28.778Z,68.01
2022-10-13T19:40:02.569Z,68.14
2022-10-13T19:42:36.679Z,68.21
2022-10-13T19:45:10.396Z,68.04
2022-10-13T19:47:42.654Z,68.02
2022-10-13T19:50:15.022Z,67.85
2022-10-13T19:52:47.090Z,67.91
2022-10-13T19:55:19.589Z,67.94
2022-10-13T19:57:52.745Z,67.86
2022-10-13T20:00:26.815Z,68.14
2022-10-13T20:02:58.954Z,68.03
2022-10-13T20:05:32.009Z,68.21
2022-10-13T20:08:04.969Z,68.03
2022-10-13T20:10:39.318Z,67.95
2022-10-13T20:13:12.157Z,67.94
2022-10-13T20:15:45.904Z,68.02
2022-10-13T20:18:18.339Z,67.96
2022-10-13T20:20:50.428Z,67.90
2022-10-13T20:23:23.087Z,68.23
2022-10-13T20:25:55.182Z,68.24
2022-10-13T20:28:28.108Z,68.20
2022-10-13T20:31:02.127Z,68.47
2022-10-13T20:33:34.523Z,68.51
2022-10-13T20:36:10.220Z,68.50
2022-10-13T20:38:43.014Z,68.34
2022-10-13T20:41:20.262Z,68.25
2022-10-13T20:43:53.621Z,68.51
2022-10-13T20:46:27.118Z,68.64
2022-10-13T20:49:14.534Z,68.76
2022-10-13T20:51:47.053Z,68.80
2022-10-13T20:54:19.146Z,68.88
2022-10-13T20:56:52.928Z,68.97
2022-10-13T20:59:24.965Z,68.68
2022-10-13T21:01:57.244Z,68.49
2022-10-13T21:04:29.535Z,68.43
2022-10-13T21:07:01.884Z,68.93
2022-10-13T21:09:35.444Z,69.07
2022-10-13T21:12:08.406Z,69.47
2022-10-13T21:14:40.954Z,69.47
2022-10-13T21:17:14.090Z,69.24
2022-10-13T21:19:47.573Z,69.28
2022-10-13T21:22:21.013Z,69.09
2022-10-13T21:24:53.572Z,69.07
2022-10-13T21:27:25.950Z,69.02
2022-10-13T21:29:58.362Z,68.87
2022-10-13T21:32:32.382Z,68.92
2022-10-13T21:35:05.046Z,69.00
2022-10-13T21:37:38.564Z,69.00
2022-10-13T21:40:12.634Z,68.84
2022-10-13T21:42:45.577Z,68.67
2022-10-13T21:45:17.875Z,68.85
2022-10-13T21:47:50.695Z,68.78
2022-10-13T21:50:23.002Z,68.97
2022-10-13T21:52:55.124Z,68.96
2022-10-13T21:55:33.067Z,69.00
2022-10-13T21:58:05.551Z,68.78
2022-10-13T22:00:37.932Z,68.67
2022-10-13T22:03:10.135Z,68.42
2022-10-13T22:05:42.161Z,68.09
2022-10-13T22:08:14.637Z,67.94
2022-10-13T22:10:46.633Z,68.13
2022-10-13T22:13:19.424Z,68.02
2022-10-13T22:15:51.698Z,68.41
2022-10-13T22:18:24.324Z,68.99
2022-10-13T22:20:56.656Z,69.02
2022-10-13T22:23:29.062Z,69.24
2022-10-13T22:26:01.465Z,69.28
2022-10-13T22:28:37.302Z,69.45
2022-10-13T22:31:11.937Z,69.38
2022-10-13T22:33:44.917Z,69.61
2022-10-13T22:36:19.066Z,69.86
2022-10-13T22:38:52.858Z,69.92
2022-10-13T22:41:25.003Z,69.78
2022-10-13T22:43:58.906Z,70.00
2022-10-13T22:46:32.892Z,70.21
2022-10-13T22:49:05.869Z,70.13
2022-10-13T22:51:38.710Z,69.98
2022-10-13T22:54:11.798Z,70.04
2022-10-13T22:56:44.637Z,69.86
2022-10-13T22:59:16.928Z,69.81
2022-10-13T23:01:49.730Z,69.62
2022-10-13T23:04:21.907Z,69.70
2022-10-13T23:06:54.385Z,69.57
2022-10-13T23:09:26.644Z,69.52
2022-10-13T23:11:59.968Z,69.53
2022-10-13T23:14:32.962Z,69.64
2022-10-13T23:17:05.681Z,69.66
2022-10-13T23:19:39.208Z,69.86
2022-10-13T23:22:11.785Z,69.68
2022-10-13T23:24:44.389Z,69.57
2022-10-13T23:27:17.127Z,69.45
2022-10-13T23:29:49.458Z,69.64
2022-10-13T23:32:21.992Z,69.90
2022-10-13T23:34:54.205Z,69.91
2022-10-13T23:37:27.500Z,69.81
2022-10-13T23:40:00.282Z,70.22
2022-10-13T23:42:33.325Z,70.00
2022-10-13T23:45:10.020Z,70.14
2022-10-13T23:47:43.431Z,70.45
2022-10-13T23:50:16.199Z,70.24
2022-10-13T23:52:48.819Z,70.31
2022-10-13T23:55:22.146Z,70.27
2022-10-13T23:57:54.637Z,70.19
